Time;durP1;ratioP1;P1;durP2;ratioP2;P2;SDS_P1;SDS_P2;PMS_P1;PMS_P2;Temp;Humidity;BMP_temperature;BMP_pressure;BME280_temperature;BME280_humidity;BME280_pressure;Samples;Min_cycle;Max_cycle;Signal;HPM_P1;HPM_P2
2022/03/21 00:00:52;;;;;;;26.02;17.13;;;;;;;9.00;52.80;101691.78;5076008;28;20390;-77
2022/03/21 00:03:19;;;;;;;23.13;17.65;;;;;;;9.08;53.70;101690.75;5079748;28;20390;-77
2022/03/21 00:05:45;;;;;;;23.42;17.55;;;;;;;9.11;52.53;101695.75;5084792;28;20432;-76
2022/03/21 00:08:12;;;;;;;24.15;16.20;;;;;;;9.09;52.21;101690.53;5059118;28;20395;-75
2022/03/21 00:10:39;;;;;;;23.25;16.90;;;;;;;9.11;52.19;101687.63;5075911;28;20402;-77
2022/03/21 00:13:05;;;;;;;22.15;17.38;;;;;;;9.08;52.89;101688.88;5083837;28;20747;-76
2022/03/21 00:15:32;;;;;;;22.67;17.25;;;;;;;9.00;53.10;101691.78;5093318;28;20415;-76
2022/03/21 00:18:02;;;;;;;22.45;17.27;;;;;;;8.94;53.77;101684.47;5073025;28;20407;-76
2022/03/21 00:20:29;;;;;;;21.08;16.35;;;;;;;8.91;52.96;101684.88;5057690;28;20398;-76
2022/03/21 00:22:55;;;;;;;22.67;16.70;;;;;;;8.89;53.69;101695.09;5079760;28;20439;-76
2022/03/21 00:25:20;;;;;;;19.50;16.05;;;;;;;8.85;53.41;101691.13;5079585;28;20411;-75
2022/03/21 00:27:45;;;;;;;22.53;16.97;;;;;;;8.81;52.83;101687.16;5059454;28;20385;-76
2022/03/21 00:30:11;;;;;;;21.83;16.90;;;;;;;8.79;53.78;101695.44;5056594;28;20392;-76
2022/03/21 00:32:38;;;;;;;23.13;16.90;;;;;;;8.76;52.92;101692.31;5083606;28;20404;-76
2022/03/21 00:35:10;;;;;;;20.20;15.98;;;;;;;8.69;53.34;101695.00;5080673;28;20910;-76
2022/03/21 00:37:37;;;;;;;22.55;16.80;;;;;;;8.66;53.96;101694.59;5087129;28;20394;-75
2022/03/21 00:40:04;;;;;;;23.63;17.67;;;;;;;8.63;53.98;101692.28;5081446;28;20503;-76
2022/03/21 00:42:30;;;;;;;20.13;16.67;;;;;;;8.59;53.22;101688.31;5079925;28;20463;-76
2022/03/21 00:44:56;;;;;;;24.73;17.80;;;;;;;8.33;54.11;101692.56;5081443;28;20384;-76
2022/03/21 00:47:22;;;;;;;22.63;16.70;;;;;;;8.30;54.29;101690.25;5074460;28;20403;-76
2022/03/21 00:49:48;;;;;;;18.50;15.93;;;;;;;8.31;54.78;101699.19;5055926;28;20388;-76
2022/03/21 00:52:14;;;;;;;22.65;16.13;;;;;;;8.26;54.73;101701.66;5066474;28;20457;-76
2022/03/21 00:54:39;;;;;;;20.02;17.27;;;;;;;8.24;55.30;101699.13;5053967;28;20383;-76
2022/03/21 00:57:04;;;;;;;19.00;15.87;;;;;;;8.25;55.82;101697.28;5073230;28;20771;-76
2022/03/21 00:59:30;;;;;;;22.97;18.57;;;;;;;8.24;56.00;101704.53;5072537;28;20415;-75
2022/03/21 01:01:55;;;;;;;24.77;18.13;;;;;;;8.23;56.31;101700.16;5087526;28;20390;-76
2022/03/21 01:04:20;;;;;;;22.60;17.60;;;;;;;8.17;56.59;101700.13;5080091;28;20417;-75
2022/03/21 01:06:45;;;;;;;24.47;18.73;;;;;;;8.10;56.30;101701.97;5082862;28;20406;-76
2022/03/21 01:09:14;;;;;;;24.13;18.73;;;;;;;8.07;56.50;101697.78;5076356;28;20395;-76
2022/03/21 01:11:40;;;;;;;22.48;18.35;;;;;;;8.02;56.96;101697.56;5075453;28;20385;-76
2022/03/21 01:14:05;;;;;;;24.15;19.20;;;;;;;7.98;57.61;101698.97;5084718;28;20430;-75
2022/03/21 01:16:30;;;;;;;24.40;18.50;;;;;;;8.00;57.53;101702.28;5084116;28;20747;-76
2022/03/21 01:18:55;;;;;;;23.10;18.83;;;;;;;7.96;58.08;101708.31;5102073;28;20410;-75
2022/03/21 01:21:21;;;;;;;22.83;18.23;;;;;;;7.93;58.00;101714.94;5075633;28;20950;-76
2022/03/21 01:23:46;;;;;;;24.95;18.45;;;;;;;7.92;57.61;101713.25;5094270;28;20410;-76
2022/03/21 01:26:11;;;;;;;28.17;20.30;;;;;;;7.93;57.39;101714.09;5083560;28;20438;-75
2022/03/21 01:28:37;;;;;;;24.03;18.43;;;;;;;7.92;57.64;101718.66;5077690;28;20388;-75
2022/03/21 01:31:02;;;;;;;24.53;19.57;;;;;;;7.89;57.21;101726.31;5075119;28;20408;-76
2022/03/21 01:33:30;;;;;;;26.20;18.70;;;;;;;7.86;57.85;101730.25;5076558;28;20463;-75
2022/03/21 01:35:56;;;;;;;27.00;19.50;;;;;;;7.84;58.45;101725.03;5081173;28;20883;-76
2022/03/21 01:38:21;;;;;;;24.20;17.97;;;;;;;7.78;57.65;101727.69;5071292;28;20400;-76
2022/03/21 01:40:46;;;;;;;22.47;18.10;;;;;;;7.76;58.51;101719.81;5089650;28;20814;-76
2022/03/21 01:43:12;;;;;;;23.97;18.07;;;;;;;7.74;58.28;101721.84;5071801;28;20415;-76
2022/03/21 01:45:38;;;;;;;23.45;18.52;;;;;;;7.69;58.61;101723.47;5074310;28;20451;-77
2022/03/21 01:48:04;;;;;;;25.17;17.95;;;;;;;7.71;58.03;101729.50;5079314;28;20450;-76
2022/03/21 01:50:30;;;;;;;26.42;19.88;;;;;;;7.71;58.28;101716.00;5087719;28;20399;-76
2022/03/21 01:55:43;;;;;;;24.02;18.23;;;;;;;7.66;58.86;101729.25;5087314;28;20401;-76
2022/03/21 01:58:09;;;;;;;25.60;18.67;;;;;;;7.64;58.16;101731.31;5076925;28;20398;-76
2022/03/21 02:00:35;;;;;;;26.13;19.00;;;;;;;7.61;58.81;101732.53;5073521;28;20398;-76
2022/03/21 02:03:00;;;;;;;26.05;18.63;;;;;;;7.58;58.57;101726.69;5076992;28;20398;-76
2022/03/21 02:05:27;;;;;;;24.57;18.23;;;;;;;7.52;59.33;101731.00;5096918;28;20396;-76
2022/03/21 02:07:53;;;;;;;24.88;18.45;;;;;;;7.49;58.98;101727.84;5097930;28;20390;-76
2022/03/21 02:10:19;;;;;;;27.97;19.13;;;;;;;7.43;58.72;101734.03;5059037;28;20506;-76
2022/03/21 02:12:45;;;;;;;23.60;18.30;;;;;;;7.38;58.47;101734.59;5082790;28;20494;-75
2022/03/21 02:15:11;;;;;;;23.45;18.23;;;;;;;7.30;58.82;101732.03;5081275;28;20396;-76
2022/03/21 02:17:40;;;;;;;23.85;18.00;;;;;;;7.22;59.94;101732.16;5083309;28;20763;-76
2022/03/21 02:20:06;;;;;;;24.25;18.35;;;;;;;7.20;59.11;101731.53;5056141;28;20767;-76
2022/03/21 02:23:07;;;;;;;24.58;18.15;;;;;;;7.19;59.76;101732.53;5061220;28;20384;-76
2022/03/21 02:25:35;;;;;;;23.00;17.80;;;;;;;7.17;59.21;101729.22;5085965;28;20396;-76
2022/03/21 02:28:02;;;;;;;21.77;17.60;;;;;;;7.14;59.22;101729.59;5096646;28;20387;-76
2022/03/21 02:30:31;;;;;;;21.50;17.67;;;;;;;7.16;59.46;101727.53;5079372;28;20901;-76
2022/03/21 02:32:58;;;;;;;25.58;18.20;;;;;;;7.15;59.24;101731.25;5085308;28;20929;-77
2022/03/21 02:35:24;;;;;;;24.90;18.90;;;;;;;7.11;59.78;101733.50;5088689;28;20437;-76
2022/03/21 02:37:51;;;;;;;24.20;18.37;;;;;;;7.12;60.06;101732.47;5078001;28;20388;-77
2022/03/21 02:40:16;;;;;;;24.55;17.95;;;;;;;7.11;59.54;101736.19;5071173;28;20415;-77
2022/03/21 02:42:42;;;;;;;23.13;18.13;;;;;;;7.08;59.72;101731.19;5082359;28;20418;-77
2022/03/21 02:45:08;;;;;;;25.60;18.42;;;;;;;7.01;59.52;101729.47;5083412;28;20415;-77
2022/03/21 02:47:34;;;;;;;22.10;16.50;;;;;;;6.95;59.78;101727.53;5077610;28;20487;-77
2022/03/21 02:50:01;;;;;;;23.30;17.30;;;;;;;6.90;60.30;101732.63;5077985;28;20389;-76
2022/03/21 02:52:28;;;;;;;24.80;17.95;;;;;;;6.88;60.41;101729.31;5086967;28;20395;-77
2022/03/21 02:54:54;;;;;;;20.55;17.38;;;;;;;6.89;60.52;101728.25;5080709;28;20488;-77
2022/03/21 02:57:19;;;;;;;21.97;16.90;;;;;;;6.88;60.77;101729.31;5098639;28;20473;-77
2022/03/21 02:59:45;;;;;;;25.38;18.30;;;;;;;6.84;60.79;101734.25;5077548;28;20417;-76
2022/03/21 03:02:10;;;;;;;23.87;17.73;;;;;;;6.85;60.44;101743.97;5093580;28;20413;-77
2022/03/21 03:04:35;;;;;;;22.05;17.13;;;;;;;6.82;60.93;101743.53;5083477;28;20868;-77
2022/03/21 03:07:01;;;;;;;24.80;16.90;;;;;;;6.85;60.64;101743.97;5074951;28;20422;-77
2022/03/21 03:09:26;;;;;;;21.20;16.67;;;;;;;6.87;60.50;101744.63;5089710;28;20465;-77
2022/03/21 03:11:51;;;;;;;22.38;16.70;;;;;;;6.87;60.61;101744.63;5089425;28;20557;-77
2022/03/21 03:14:17;;;;;;;22.83;16.93;;;;;;;6.86;60.98;101751.03;5089028;28;20397;-77
2022/03/21 03:16:42;;;;;;;22.83;16.95;;;;;;;6.86;60.79;101750.19;5080167;28;20394;-76
2022/03/21 03:19:08;;;;;;;22.20;16.97;;;;;;;6.85;60.77;101743.97;5057592;28;20412;-77
2022/03/21 03:21:37;;;;;;;25.57;16.93;;;;;;;6.84;60.50;101744.19;5086484;28;20387;-77
2022/03/21 03:24:04;;;;;;;22.08;17.83;;;;;;;6.79;61.08;101739.34;5064760;28;20488;-77
2022/03/21 03:26:29;;;;;;;23.13;16.67;;;;;;;6.77;60.81;101741.41;5082568;28;20406;-77
2022/03/21 03:28:54;;;;;;;22.00;16.47;;;;;;;6.74;60.67;101745.31;5087244;28;20550;-77
2022/03/21 03:31:20;;;;;;;20.20;16.77;;;;;;;6.75;60.48;101741.56;5059077;28;20837;-77
2022/03/21 03:33:47;;;;;;;21.80;16.93;;;;;;;6.78;60.49;101743.09;5081314;28;20396;-77
2022/03/21 03:36:17;;;;;;;20.52;16.60;;;;;;;6.78;60.87;101743.91;5102887;28;20392;-76
2022/03/21 03:38:46;;;;;;;22.35;16.95;;;;;;;6.78;61.12;101746.59;5074778;28;20421;-77
2022/03/21 03:41:12;;;;;;;21.05;16.13;;;;;;;6.67;61.29;101749.78;5059699;28;20409;-77
2022/03/21 03:43:38;;;;;;;27.02;17.88;;;;;;;6.68;61.13;101756.00;5084876;28;20407;-77
2022/03/21 03:46:04;;;;;;;136.02;47.85;;;;;;;6.78;61.16;101753.88;5083418;28;20906;-76
2022/03/21 03:48:30;;;;;;;111.18;38.88;;;;;;;6.80;61.10;101754.50;5076988;28;20930;-77
2022/03/21 03:50:55;;;;;;;103.20;39.97;;;;;;;6.83;60.85;101751.41;5074638;28;20524;-77
2022/03/21 03:53:21;;;;;;;81.07;34.08;;;;;;;6.84;61.07;101763.03;5081825;28;20757;-77
2022/03/21 03:55:46;;;;;;;39.83;22.47;;;;;;;6.86;61.18;101766.38;5067257;28;21818;-77
2022/03/21 03:58:11;;;;;;;34.00;20.37;;;;;;;6.91;61.63;101764.81;5104923;28;20433;-77
2022/03/21 04:00:37;;;;;;;64.85;28.98;;;;;;;6.96;62.41;101775.00;5112711;28;20435;-76
2022/03/21 04:05:46;;;;;;;27.00;18.42;;;;;;;6.90;60.82;101781.97;5105694;28;20411;-77
2022/03/21 04:08:12;;;;;;;26.15;17.85;;;;;;;6.73;61.23;101784.06;5083496;28;20404;-77
2022/03/21 04:10:37;;;;;;;20.83;16.50;;;;;;;6.65;61.49;101778.75;5092870;28;20384;-77
2022/03/21 04:13:03;;;;;;;23.60;17.77;;;;;;;6.64;62.15;101773.56;5094502;28;20381;-77
2022/03/21 04:15:28;;;;;;;21.55;16.42;;;;;;;6.64;61.54;101784.34;5104544;28;20405;-77
2022/03/21 04:18:01;;;;;;;22.80;17.07;;;;;;;6.64;61.65;101785.19;5066982;28;20475;-77
2022/03/21 04:20:27;;;;;;;23.58;17.83;;;;;;;6.68;61.58;101793.72;5087618;28;20410;-77
2022/03/21 04:22:53;;;;;;;22.02;16.63;;;;;;;6.70;61.98;101786.28;5088558;28;20410;-76
2022/03/21 04:25:18;;;;;;;24.75;16.83;;;;;;;6.71;62.18;101787.97;5074121;28;20494;-77
2022/03/21 04:27:43;;;;;;;22.50;17.17;;;;;;;6.71;61.96;101786.09;5088402;28;20408;-77
2022/03/21 04:30:09;;;;;;;22.75;17.08;;;;;;;6.71;62.07;101793.34;5112155;28;20384;-77
2022/03/21 04:32:34;;;;;;;20.88;16.75;;;;;;;6.70;61.77;101791.66;5094188;28;20384;-77
2022/03/21 04:35:00;;;;;;;21.50;16.93;;;;;;;6.74;62.42;101795.66;5100423;28;20394;-77
2022/03/21 04:37:25;;;;;;;21.27;16.63;;;;;;;6.73;62.12;101785.91;5073102;28;20419;-76
2022/03/21 04:39:51;;;;;;;21.48;17.08;;;;;;;6.74;61.99;101788.44;5105867;28;20504;-77
2022/03/21 04:42:17;;;;;;;21.33;15.50;;;;;;;6.79;62.71;101796.75;5090777;28;20492;-77
2022/03/21 04:44:44;;;;;;;20.87;15.20;;;;;;;6.85;62.21;101795.16;5104998;28;20384;-76
2022/03/21 04:47:10;;;;;;;22.60;17.30;;;;;;;6.89;63.53;101791.09;5110347;28;20463;-77
2022/03/21 04:49:36;;;;;;;23.23;17.37;;;;;;;6.89;63.19;101792.94;5101599;28;20412;-77
2022/03/21 04:52:01;;;;;;;23.65;16.90;;;;;;;6.92;63.07;101792.56;5070591;28;20844;-77
2022/03/21 04:54:28;;;;;;;21.00;16.77;;;;;;;6.98;61.95;101800.72;5079724;28;20410;-76
2022/03/21 04:56:53;;;;;;;21.55;17.38;;;;;;;7.05;62.19;101798.94;5088484;28;20427;-76
2022/03/21 04:59:19;;;;;;;24.25;17.30;;;;;;;7.09;62.45;101805.63;5089093;28;21012;-77
2022/03/21 05:01:44;;;;;;;23.10;17.13;;;;;;;7.08;62.41;101809.34;5110593;28;20386;-77
2022/03/21 05:04:09;;;;;;;26.43;19.40;;;;;;;7.10;63.14;101810.00;5095014;28;20411;-77
2022/03/21 05:06:34;;;;;;;24.23;19.20;;;;;;;7.10;63.31;101811.88;5082688;28;20441;-76
2022/03/21 05:09:03;;;;;;;28.03;19.20;;;;;;;7.13;62.72;101809.63;5107182;28;20435;-77
2022/03/21 05:11:28;;;;;;;26.83;19.42;;;;;;;7.18;62.91;101809.88;5111379;28;20392;-77
2022/03/21 05:13:54;;;;;;;25.80;19.13;;;;;;;7.21;62.89;101804.09;5070329;28;20405;-77
2022/03/21 05:16:19;;;;;;;24.60;19.07;;;;;;;7.23;63.12;101817.41;5087098;28;20461;-77
2022/03/21 05:18:45;;;;;;;28.08;20.58;;;;;;;7.19;63.09;101813.41;5099122;28;20460;-76
2022/03/21 05:21:10;;;;;;;27.73;21.60;;;;;;;7.11;63.42;101819.75;5087585;28;20747;-76
2022/03/21 05:31:47;;;;;;;35.85;25.02;;;;;;;7.01;65.09;101819.25;5086537;28;20437;-77
2022/03/21 05:36:56;;;;;;;35.67;27.38;;;;;;;7.11;64.78;101827.84;5087917;28;20417;-77
2022/03/21 05:39:23;;;;;;;35.83;27.33;;;;;;;7.13;65.42;101827.66;5087223;28;20416;-77
2022/03/21 05:41:51;;;;;;;38.95;28.65;;;;;;;7.10;64.75;101828.88;5109641;28;20404;-77
2022/03/21 05:44:17;;;;;;;38.15;27.92;;;;;;;7.11;65.48;101838.63;5074863;28;20405;-76
2022/03/21 05:46:42;;;;;;;38.08;27.52;;;;;;;7.18;64.96;101846.78;5072630;28;20403;-77
2022/03/21 05:49:07;;;;;;;37.07;25.90;;;;;;;7.24;64.72;101851.44;5106361;28;20404;-77
2022/03/21 05:51:36;;;;;;;33.43;24.87;;;;;;;7.26;64.89;101852.09;5099584;28;20391;-77
2022/03/21 05:54:05;;;;;;;30.83;21.45;;;;;;;7.22;63.98;101856.19;5092982;28;20388;-77
2022/03/21 05:56:31;;;;;;;31.08;21.50;;;;;;;7.23;63.89;101855.16;5104894;28;20456;-77
2022/03/21 06:00:19;;;;;;;27.33;20.92;;;;;;;7.23;63.88;101853.31;5089846;28;20412;-77
2022/03/21 06:01:42;;;;;;;26.67;20.43;;;;;;;7.24;63.44;101852.25;5091969;28;20406;-77
2022/03/21 06:04:08;;;;;;;25.27;20.07;;;;;;;7.32;62.92;101862.94;5096064;28;20417;-77
2022/03/21 06:06:33;;;;;;;25.20;20.07;;;;;;;7.37;63.17;101865.09;5107482;28;20393;-77
2022/03/21 06:08:58;;;;;;;23.97;19.50;;;;;;;7.39;62.81;101859.50;5110497;28;20882;-77
2022/03/21 06:11:23;;;;;;;23.87;20.13;;;;;;;7.41;61.36;101862.84;5087020;28;20878;-77
2022/03/21 06:13:49;;;;;;;25.30;19.67;;;;;;;7.43;61.19;101864.31;5098600;28;20423;-77
2022/03/21 06:16:15;;;;;;;26.08;19.77;;;;;;;7.45;60.90;101866.81;5100904;28;20401;-77
2022/03/21 06:18:40;;;;;;;24.25;20.15;;;;;;;7.53;61.40;101869.41;5114658;28;20457;-77
2022/03/21 06:21:07;;;;;;;28.00;20.45;;;;;;;7.58;61.12;101870.50;5095005;28;20457;-77
2022/03/21 06:23:33;;;;;;;28.23;20.50;;;;;;;7.59;59.92;101874.88;5074999;28;20469;-79
2022/03/21 06:25:58;;;;;;;24.30;19.17;;;;;;;7.62;59.08;101881.75;5108842;28;20400;-77
2022/03/21 06:28:26;;;;;;;24.67;19.53;;;;;;;7.67;58.82;101880.13;5101701;28;20479;-77
2022/03/21 06:30:53;;;;;;;27.17;20.38;;;;;;;7.73;58.76;101884.78;5096478;28;20427;-77
2022/03/21 06:33:21;;;;;;;28.75;20.08;;;;;;;7.80;58.81;101882.97;5103531;28;20409;-77
2022/03/21 06:35:46;;;;;;;25.70;20.45;;;;;;;7.84;59.47;101886.13;5079962;28;20815;-77
2022/03/21 06:38:12;;;;;;;25.43;19.43;;;;;;;7.87;59.09;101888.44;5114102;28;20445;-77
2022/03/21 06:40:39;;;;;;;25.13;19.20;;;;;;;7.96;58.68;101897.25;5094302;28;20455;-79
2022/03/21 06:43:04;;;;;;;22.67;19.98;;;;;;;8.09;59.09;101895.53;5097395;28;20392;-77
2022/03/21 06:45:29;;;;;;;21.37;17.43;;;;;;;8.12;58.13;101897.84;5107957;28;20876;-78
2022/03/21 06:47:55;;;;;;;27.67;20.20;;;;;;;8.23;57.25;101901.88;5102647;27;20477;-77
2022/03/21 06:50:20;;;;;;;23.38;18.45;;;;;;;8.54;57.39;101901.53;5100239;28;20392;-79
2022/03/21 06:52:45;;;;;;;24.90;19.33;;;;;;;8.62;56.50;101907.63;5101203;28;20416;-81
2022/03/21 06:55:12;;;;;;;25.00;18.93;;;;;;;8.54;55.97;101910.47;5092598;28;20414;-80
2022/03/21 06:57:38;;;;;;;25.50;20.92;;;;;;;8.59;56.10;101913.44;5111777;28;20476;-80
2022/03/21 07:00:05;;;;;;;24.05;19.52;;;;;;;8.53;55.75;101914.19;5097520;28;20813;-81
2022/03/21 07:02:31;;;;;;;27.53;20.93;;;;;;;8.46;57.27;101928.72;5101315;28;20433;-82
2022/03/21 07:04:57;;;;;;;26.10;19.38;;;;;;;8.46;57.08;101928.72;5107082;28;20384;-78
2022/03/21 07:07:23;;;;;;;24.40;18.85;;;;;;;8.44;56.57;101923.50;5113655;28;20728;-78
2022/03/21 07:09:49;;;;;;;24.65;18.98;;;;;;;8.54;57.08;101932.09;5095685;28;20474;-77
2022/03/21 07:12:14;;;;;;;24.70;18.43;;;;;;;8.58;56.81;101930.69;5079718;28;20384;-78
2022/03/21 07:14:39;;;;;;;22.53;17.70;;;;;;;8.66;56.50;101935.09;5108302;28;20416;-77
2022/03/21 07:17:05;;;;;;;25.73;19.13;;;;;;;8.65;56.73;101934.28;5093537;28;20392;-78
2022/03/21 07:19:30;;;;;;;24.23;18.80;;;;;;;8.70;57.14;101939.06;5107629;28;20770;-79
2022/03/21 07:21:55;;;;;;;21.45;17.52;;;;;;;8.72;56.40;101932.47;5089665;28;20770;-78
2022/03/21 07:24:21;;;;;;;24.53;18.23;;;;;;;8.77;57.08;101940.78;5085888;28;20404;-78
2022/03/21 07:26:46;;;;;;;22.17;18.13;;;;;;;8.85;57.21;101940.66;5084570;28;20406;-77
2022/03/21 07:29:12;;;;;;;24.43;18.30;;;;;;;8.86;56.90;101942.31;5081865;28;20399;-81
2022/03/21 07:31:38;;;;;;;22.13;18.03;;;;;;;8.88;56.53;101938.56;5084273;28;20435;-78
2022/03/21 07:34:04;;;;;;;23.20;17.80;;;;;;;8.95;56.27;101937.59;5073438;28;20399;-79
2022/03/21 07:36:29;;;;;;;24.13;18.50;;;;;;;9.03;56.59;101934.72;5075694;28;20411;-79
2022/03/21 07:38:56;;;;;;;24.47;18.67;;;;;;;9.11;55.76;101942.69;5095885;28;20402;-78
2022/03/21 07:41:26;;;;;;;23.35;18.77;;;;;;;9.15;56.26;101935.00;5071181;28;20739;-78
2022/03/21 07:43:57;;;;;;;22.48;18.77;;;;;;;9.15;56.00;101946.66;5086739;28;20741;-77
2022/03/21 07:49:20;;;;;;;22.90;18.40;;;;;;;9.26;55.69;101948.78;5062826;28;20524;-78
2022/03/21 07:51:46;;;;;;;20.80;18.00;;;;;;;9.43;55.38;101943.03;5094492;28;20431;-77
2022/03/21 07:54:12;;;;;;;23.65;18.48;;;;;;;9.52;55.23;101944.53;5087580;28;20762;-77
2022/03/21 07:56:38;;;;;;;23.13;18.95;;;;;;;9.60;54.53;101950.63;5081158;28;20498;-77
2022/03/21 07:59:04;;;;;;;24.27;17.50;;;;;;;9.64;54.04;101945.66;5096647;28;20844;-77
2022/03/21 08:01:30;;;;;;;22.17;17.97;;;;;;;9.78;54.08;101947.38;5104282;28;20834;-77
2022/03/21 08:03:59;;;;;;;23.90;17.90;;;;;;;9.89;53.28;101952.16;5102158;28;20392;-77
2022/03/21 08:06:24;;;;;;;23.40;17.17;;;;;;;9.80;53.30;101956.94;5095175;28;20975;-77
2022/03/21 08:08:50;;;;;;;23.93;17.23;;;;;;;9.97;52.26;101951.16;5076057;28;20510;-77
2022/03/21 08:11:17;;;;;;;23.33;18.30;;;;;;;9.91;52.46;101948.22;5090141;28;20381;-77
2022/03/21 08:13:42;;;;;;;30.10;17.88;;;;;;;10.02;52.30;101951.38;5112941;28;20368;-77
2022/03/21 08:16:08;;;;;;;22.85;17.67;;;;;;;10.07;52.04;101957.84;5083845;28;20408;-77
2022/03/21 08:18:33;;;;;;;28.13;17.60;;;;;;;10.15;51.26;101956.84;5080111;28;20439;-78
2022/03/21 08:20:58;;;;;;;24.75;17.20;;;;;;;10.31;51.72;101953.72;5094462;28;20517;-78
2022/03/21 08:23:24;;;;;;;23.40;17.37;;;;;;;10.40;52.35;101949.81;5112011;28;20415;-78
2022/03/21 08:25:49;;;;;;;21.30;16.87;;;;;;;10.41;51.49;101948.75;5100575;28;20447;-78
2022/03/21 08:28:14;;;;;;;20.63;17.37;;;;;;;10.54;51.16;101954.16;5098309;28;20476;-79
2022/03/21 08:30:41;;;;;;;20.60;16.87;;;;;;;10.66;51.65;101957.09;5083308;28;20465;-77
2022/03/21 08:33:09;;;;;;;18.80;16.53;;;;;;;10.81;51.56;101949.56;5079268;28;20412;-77
2022/03/21 08:35:36;;;;;;;22.00;17.17;;;;;;;11.06;50.92;101952.47;5101815;28;20440;-78
2022/03/21 08:38:03;;;;;;;23.52;17.38;;;;;;;11.26;50.07;101954.06;5096391;28;20471;-79
2022/03/21 08:40:28;;;;;;;19.13;16.20;;;;;;;11.36;49.99;101957.19;5090169;28;20497;-78
2022/03/21 08:42:55;;;;;;;18.83;16.57;;;;;;;11.45;49.26;101966.78;5072546;28;20538;-79
2022/03/21 08:45:21;;;;;;;21.05;16.05;;;;;;;11.61;49.31;101959.19;5092336;28;20394;-77
2022/03/21 08:47:47;;;;;;;20.63;16.10;;;;;;;11.64;48.87;101959.59;5109713;28;20393;-79
2022/03/21 08:50:13;;;;;;;19.08;16.00;;;;;;;11.83;47.75;101968.72;5084168;28;20736;-77
2022/03/21 08:52:39;;;;;;;19.80;16.40;;;;;;;12.02;47.75;101956.91;5093693;28;20430;-77
2022/03/21 08:55:05;;;;;;;21.17;16.08;;;;;;;12.16;46.94;101960.38;5112460;28;20392;-77
2022/03/21 08:57:31;;;;;;;22.80;16.90;;;;;;;12.04;46.57;101964.84;5077698;28;20400;-79
2022/03/21 08:59:56;;;;;;;21.35;16.33;;;;;;;12.21;46.56;101963.28;5093735;28;20412;-77
2022/03/21 09:02:22;;;;;;;20.83;16.57;;;;;;;12.21;46.17;101960.56;5112097;28;20427;-79
2022/03/21 09:04:47;;;;;;;19.33;15.52;;;;;;;12.19;46.14;101955.34;5089476;28;20995;-78
2022/03/21 09:07:15;;;;;;;19.67;16.37;;;;;;;12.33;46.08;101962.38;5104201;28;20391;-79
2022/03/21 09:09:41;;;;;;;20.70;16.77;;;;;;;12.40;45.02;101960.44;5081989;28;20495;-79
2022/03/21 09:12:07;;;;;;;21.67;15.52;;;;;;;12.63;43.96;101962.56;5101500;28;20443;-79
2022/03/21 09:14:33;;;;;;;17.55;15.65;;;;;;;12.97;43.56;101962.00;5103061;28;20405;-80
2022/03/21 09:16:59;;;;;;;19.42;16.17;;;;;;;13.23;43.38;101947.34;5102678;28;20800;-79
2022/03/21 09:19:24;;;;;;;21.02;16.27;;;;;;;13.45;43.50;101948.56;5093175;28;20481;-77
2022/03/21 09:21:51;;;;;;;23.55;16.83;;;;;;;13.59;43.26;101956.56;5112075;28;20418;-78
2022/03/21 09:24:16;;;;;;;27.33;17.08;;;;;;;14.02;41.68;101944.47;5093584;28;20395;-77
2022/03/21 09:26:42;;;;;;;32.22;18.30;;;;;;;14.50;41.52;101943.53;5085899;28;20404;-80
2022/03/21 09:29:07;;;;;;;20.70;16.83;;;;;;;14.84;41.13;101948.22;5083343;28;20402;-78
2022/03/21 09:31:39;;;;;;;19.60;15.90;;;;;;;15.12;40.50;101944.75;5090901;28;20759;-78
2022/03/21 09:34:05;;;;;;;21.45;15.23;;;;;;;15.72;38.98;101939.78;5102848;28;20384;-78
2022/03/21 09:36:30;;;;;;;19.73;16.53;;;;;;;16.08;38.49;101944.84;5103515;28;20390;-79
2022/03/21 09:38:55;;;;;;;20.27;16.73;;;;;;;16.84;37.40;101943.44;5112082;28;20400;-79
2022/03/21 09:41:26;;;;;;;20.43;16.40;;;;;;;17.38;35.69;101940.94;5116030;28;20391;-79
2022/03/21 09:43:53;;;;;;;19.70;17.13;;;;;;;18.56;34.03;101940.06;5088528;28;20480;-79
2022/03/21 09:46:20;;;;;;;22.42;16.73;;;;;;;19.40;32.62;101943.66;5109457;28;20461;-78
2022/03/21 09:48:50;;;;;;;21.10;17.63;;;;;;;21.21;30.29;101951.34;5074883;28;20413;-79
2022/03/21 09:51:24;;;;;;;21.23;17.03;;;;;;;22.26;28.18;101936.53;5115887;28;20441;-79
2022/03/21 09:53:50;;;;;;;19.08;16.88;;;;;;;22.27;27.81;101932.66;5115700;28;20384;-79
2022/03/21 09:56:17;;;;;;;20.75;16.83;;;;;;;22.87;27.33;101929.41;5114055;28;20445;-79
2022/03/21 09:58:43;;;;;;;18.80;16.58;;;;;;;23.95;25.41;101933.38;5098791;28;20415;-79
2022/03/21 10:01:11;;;;;;;19.30;16.52;;;;;;;25.21;23.89;101926.56;5115650;28;20385;-79
2022/03/21 10:03:40;;;;;;;17.70;15.02;;;;;;;26.39;23.13;101922.88;5097949;28;20498;-79
2022/03/21 10:06:29;;;;;;;18.85;16.35;;;;;;;27.37;22.50;101926.41;5097170;28;20801;-80
2022/03/21 10:09:05;;;;;;;17.63;15.00;;;;;;;27.45;21.55;101926.44;5076902;28;20905;-80
2022/03/21 10:11:30;;;;;;;17.40;15.02;;;;;;;28.28;20.61;101924.44;5084283;28;20753;-80
2022/03/21 10:13:56;;;;;;;17.97;14.90;;;;;;;29.08;19.46;101922.81;5107305;28;20560;-80
2022/03/21 10:16:21;;;;;;;19.53;16.30;;;;;;;29.33;18.88;101922.75;5114906;28;20384;-80
2022/03/21 10:18:52;;;;;;;17.63;15.83;;;;;;;29.92;19.37;101935.88;5094542;28;20415;-80
2022/03/21 10:21:18;;;;;;;17.60;15.68;;;;;;;29.89;18.34;101923.41;5096493;28;20377;-80
2022/03/21 10:23:46;;;;;;;17.85;15.43;;;;;;;29.51;18.64;101922.63;5102838;28;20421;-80
2022/03/21 10:26:31;;;;;;;17.70;15.88;;;;;;;29.28;18.65;101914.53;5089966;28;20411;-80
2022/03/21 10:28:59;;;;;;;19.37;16.10;;;;;;;30.03;18.89;101920.34;5076103;28;20452;-80
2022/03/21 10:31:48;;;;;;;17.33;14.98;;;;;;;30.86;18.26;101916.22;5060177;28;20404;-80
2022/03/21 10:34:19;;;;;;;17.88;16.05;;;;;;;29.93;18.55;101912.34;5114471;28;20416;-80
2022/03/21 10:37:09;;;;;;;18.27;16.37;;;;;;;31.23;17.38;101908.72;5114828;28;20376;-80
2022/03/21 10:39:39;;;;;;;18.60;16.10;;;;;;;30.62;17.25;101910.59;5105971;28;20519;-80
2022/03/21 10:42:07;;;;;;;18.90;16.88;;;;;;;30.45;17.23;101913.56;5114322;28;20384;-80
2022/03/21 10:44:34;;;;;;;17.80;16.00;;;;;;;30.87;16.93;101903.06;5114429;28;20455;-80
2022/03/21 10:47:03;;;;;;;18.95;17.05;;;;;;;30.71;17.89;101899.31;5095772;28;20393;-80
2022/03/21 10:49:33;;;;;;;18.90;17.00;;;;;;;30.50;17.46;101904.94;5087610;28;20809;-80
2022/03/21 10:51:59;;;;;;;19.05;17.08;;;;;;;31.60;16.18;101905.94;5070125;28;20412;-80
2022/03/21 10:54:43;;;;;;;19.00;17.10;;;;;;;31.42;16.22;101902.53;5093653;28;20963;-80
2022/03/21 10:57:36;;;;;;;20.73;16.98;;;;;;;31.10;16.90;101897.88;5090643;28;20873;-80
2022/03/21 11:00:14;;;;;;;21.02;17.52;;;;;;;31.52;16.27;101895.66;5114467;28;20422;-80
2022/03/21 11:02:51;;;;;;;19.67;17.10;;;;;;;31.24;16.74;101893.56;5101046;28;20396;-80
2022/03/21 11:05:21;;;;;;;18.20;16.30;;;;;;;31.17;16.43;101895.31;5091894;28;20390;-81
2022/03/21 11:07:48;;;;;;;19.40;16.38;;;;;;;31.32;16.07;101884.22;5084811;28;20404;-80
2022/03/21 11:10:13;;;;;;;19.92;16.80;;;;;;;31.33;15.71;101888.66;5098200;28;20396;-80
2022/03/21 11:12:42;;;;;;;19.30;16.50;;;;;;;31.16;16.11;101886.09;5101232;28;20392;-80
2022/03/21 11:15:08;;;;;;;21.00;15.95;;;;;;;31.63;15.61;101880.81;5107797;28;20504;-80
2022/03/21 11:17:35;;;;;;;17.50;15.68;;;;;;;31.51;15.37;101871.63;5091142;28;20394;-81
2022/03/21 11:20:04;;;;;;;20.90;16.63;;;;;;;31.44;15.52;101871.38;5084676;28;20423;-80
2022/03/21 11:22:32;;;;;;;17.30;15.52;;;;;;;31.04;16.13;101874.06;5098078;28;20415;-80
2022/03/21 11:25:15;;;;;;;20.05;16.17;;;;;;;31.28;15.85;101871.28;5106535;28;20558;-80
2022/03/21 11:28:02;;;;;;;17.17;15.48;;;;;;;30.38;16.25;101869.34;5091223;28;20387;-80
2022/03/21 11:30:50;;;;;;;16.25;14.55;;;;;;;30.12;16.64;101868.78;5079134;28;20398;-80
2022/03/21 11:33:27;;;;;;;17.92;16.00;;;;;;;30.51;16.41;101864.63;5064553;28;20402;-81